This is the latest recevied weather packets stored in our database for station/object KG5WBN. If no packets are shown the sender has not sent any weather packets the latest 10 day(s).
| Time | Temp. | Humidity | Pressure | Rain* | Wind** | Luminosity | Snow |
|---|---|---|---|---|---|---|---|
| 1778185750 | 23.33° C | 85% | 1012.5 hPa | 0 mm | - | 62 W/m² | - |
| 1778185441 | 23.33° C | 85% | 1012.9 hPa | 0 mm | - | 68 W/m² | - |
| 1778185136 | 23.33° C | 85% | 1012.9 hPa | 0 mm | - | 88 W/m² | - |
| 1778184832 | 23.33° C | 85% | 1012.9 hPa | 0 mm | - | 68 W/m² | - |
| 1778184529 | 23.33° C | 84% | 1012.5 hPa | 0 mm | - | 45 W/m² | - |
| 1778184224 | 23.33° C | 84% | 1012.5 hPa | 0 mm | - | 49 W/m² | - |
| 1778183921 | 23.89° C | 84% | 1012.5 hPa | 0 mm | - | 82 W/m² | - |
| 1778183613 | 23.89° C | 84% | 1012.9 hPa | 0 mm | - | 60 W/m² | - |
| 1778183310 | 23.89° C | 83% | 1012.9 hPa | 0 mm | - | 72 W/m² | - |
| 1778183006 | 24.44° C | 80% | 1012.9 hPa | 0 mm | - | 125 W/m² | - |
| 1778182703 | 24.44° C | 82% | 1012.9 hPa | 0 mm | - | 148 W/m² | - |
| 1778182401 | 23.89° C | 83% | 1012.9 hPa | 0 mm | - | 136 W/m² | - |
| 1778182096 | 23.89° C | 84% | 1012.9 hPa | 0 mm | - | 153 W/m² | - |
| 1778181792 | 23.89° C | 84% | 1012.9 hPa | 0 mm | - | 121 W/m² | - |
| 1778181488 | 23.89° C | 85% | 1012.9 hPa | 0 mm | - | 126 W/m² | - |
| 1778181185 | 23.89° C | 86% | 1013.2 hPa | 0 mm | - | 117 W/m² | - |
| 1778180882 | 23.33° C | 86% | 1012.9 hPa | 0 mm | - | 130 W/m² | - |
| 1778180581 | 23.33° C | 86% | 1012.9 hPa | 0 mm | - | 95 W/m² | - |
| 1778180279 | 23.33° C | 87% | 1013.2 hPa | 0 mm | - | 104 W/m² | - |
| 1778179975 | 22.78° C | 87% | 1013.2 hPa | 0 mm | - | 68 W/m² | - |
| 1778179673 | 22.78° C | 87% | 1013.2 hPa | 0 mm | - | 86 W/m² | - |
| 1778179370 | 22.78° C | 86% | 1013.2 hPa | 0 mm | - | 83 W/m² | - |
| 1778179067 | 23.33° C | 86% | 1013.2 hPa | 0 mm | - | 121 W/m² | - |
| 1778178764 | 23.33° C | 86% | 1013.2 hPa | 0 mm | - | 129 W/m² | - |
| 1778178462 | 23.33° C | 88% | 1013.2 hPa | 0 mm | - | 153 W/m² | - |
* Rain latest hour (hover to see other rain measurements)
** Current wind speed in m/s (hover to see current wind gust speed)